McNutt, Louisiana
Current Conditions -  °F | °C
As of 3:53 PM on Thursday 18 Dec 2014 (Local Time) from KAEX Reporting Station
Overcast Overcast  
Wind Chill: 12°   Ceiling: 800
Heat Index: 12°   Visibility: 9mi
Dew Point: 10°   Wind: 5mph
Humidity: 89%   Direction: 70°ENE
Pressure: 30.1"   Gusts: NA
Location:  31.3168°N, 92.7338°W
Report Text: KAEX 182153Z 07004KT 9SM OVC008 12/10 A3010 RMK AO2 SLP197 T01170100
Loading
Personal Weather Stations






























Interactive Weather Map New forecast layout! Learn more

10-Day Weather Forecast

Advertisements
Track Severe Weather on mobile